createdAt,value
2023-12-19T00:00:35.827Z,8.20
2023-12-19T00:02:37.659Z,8.20
2023-12-19T00:04:39.456Z,8.20
2023-12-19T00:06:41.324Z,8.20
2023-12-19T00:08:43.005Z,8.20
2023-12-19T00:10:44.813Z,8.20
2023-12-19T00:12:46.729Z,8.20
2023-12-19T00:14:48.676Z,8.20
2023-12-19T00:16:50.412Z,8.20
2023-12-19T00:18:52.273Z,8.20
2023-12-19T00:20:55.079Z,8.20
2023-12-19T00:22:56.781Z,8.20
2023-12-19T00:24:58.524Z,8.20
2023-12-19T00:27:00.277Z,8.20
2023-12-19T00:29:01.992Z,8.20
2023-12-19T00:31:04.070Z,8.20
2023-12-19T00:33:06.565Z,8.20
2023-12-19T00:35:09.838Z,8.20
2023-12-19T00:37:11.760Z,8.20
2023-12-19T00:39:13.513Z,8.20
2023-12-19T00:41:16.400Z,8.20
2023-12-19T00:43:18.103Z,8.20
2023-12-19T00:45:19.894Z,8.20
2023-12-19T00:47:21.672Z,8.10
2023-12-19T00:49:23.427Z,8.20
2023-12-19T00:51:25.175Z,8.20
2023-12-19T00:53:26.986Z,8.20
2023-12-19T00:55:28.786Z,8.10
2023-12-19T00:57:30.562Z,8.10
2023-12-19T00:59:32.330Z,8.20
2023-12-19T01:01:34.105Z,8.10
2023-12-19T01:03:36.719Z,8.20
2023-12-19T01:05:38.688Z,8.10
2023-12-19T01:07:40.441Z,8.20
2023-12-19T01:09:42.312Z,8.20
2023-12-19T01:11:44.092Z,8.20
2023-12-19T01:13:46.241Z,8.20
2023-12-19T01:15:48.688Z,8.20
2023-12-19T01:17:50.948Z,8.20
2023-12-19T01:19:54.154Z,8.20
2023-12-19T01:21:56.514Z,8.20
2023-12-19T01:23:58.245Z,8.20
2023-12-19T01:26:01.549Z,8.20
2023-12-19T01:28:10.999Z,8.20
2023-12-19T01:30:14.309Z,8.20
2023-12-19T01:32:16.099Z,8.20
2023-12-19T01:34:18.072Z,8.20
2023-12-19T01:36:19.865Z,8.30
2023-12-19T01:38:21.863Z,8.30
2023-12-19T01:40:23.582Z,8.30
2023-12-19T01:42:25.414Z,8.30
2023-12-19T01:44:27.173Z,8.30
2023-12-19T01:46:29.249Z,8.40
2023-12-19T01:48:31.167Z,8.30
2023-12-19T01:50:32.961Z,8.40
2023-12-19T01:52:36.269Z,8.40
2023-12-19T01:54:38.809Z,8.40
2023-12-19T01:56:40.840Z,8.40
2023-12-19T01:58:42.965Z,8.40
2023-12-19T02:00:44.803Z,8.40
2023-12-19T02:02:47.086Z,8.40
2023-12-19T02:04:52.255Z,8.40
2023-12-19T02:06:54.302Z,8.40
2023-12-19T02:08:56.057Z,8.50
2023-12-19T02:10:57.743Z,8.40
2023-12-19T02:13:00.247Z,8.40
2023-12-19T02:15:02.658Z,8.40
2023-12-19T02:17:04.425Z,8.40
2023-12-19T02:19:06.572Z,8.40
2023-12-19T02:21:08.577Z,8.40
2023-12-19T02:23:11.367Z,8.40
2023-12-19T02:25:13.547Z,8.40
2023-12-19T02:27:16.113Z,8.40
2023-12-19T02:29:17.845Z,8.40
2023-12-19T02:31:20.841Z,8.40
2023-12-19T02:33:22.714Z,8.40
2023-12-19T02:35:24.847Z,8.40
2023-12-19T02:37:26.650Z,8.40
2023-12-19T02:39:28.404Z,8.40
2023-12-19T02:41:30.304Z,8.40
2023-12-19T02:43:32.006Z,8.50
2023-12-19T02:45:35.396Z,8.50
2023-12-19T02:47:37.506Z,8.50
2023-12-19T02:49:39.416Z,8.40
2023-12-19T02:51:41.265Z,8.40
2023-12-19T02:53:42.943Z,8.40
2023-12-19T02:55:44.627Z,8.50
2023-12-19T02:57:46.433Z,8.40
2023-12-19T02:59:48.103Z,8.50
2023-12-19T03:01:49.974Z,8.50
2023-12-19T03:03:51.956Z,8.40
2023-12-19T03:05:53.774Z,8.40
2023-12-19T03:07:56.390Z,8.40
2023-12-19T03:09:58.169Z,8.40
2023-12-19T03:12:01.094Z,8.40
2023-12-19T03:14:02.817Z,8.40
2023-12-19T03:16:04.943Z,8.40
2023-12-19T03:18:06.844Z,8.40
2023-12-19T03:20:08.894Z,8.40
2023-12-19T03:22:10.742Z,8.40
2023-12-19T03:24:12.520Z,8.40
2023-12-19T03:26:14.288Z,8.40
2023-12-19T03:28:16.019Z,8.40
2023-12-19T03:30:17.728Z,8.40
2023-12-19T03:32:20.276Z,8.40
2023-12-19T03:34:22.121Z,8.40
2023-12-19T03:36:23.949Z,8.40
2023-12-19T03:38:25.657Z,8.30
2023-12-19T03:40:27.458Z,8.40
2023-12-19T03:42:29.231Z,8.40
2023-12-19T03:44:30.984Z,8.30
2023-12-19T03:46:32.777Z,8.40
2023-12-19T03:48:35.891Z,8.40
2023-12-19T03:50:37.712Z,8.40
2023-12-19T03:52:39.513Z,8.40
2023-12-19T03:54:41.306Z,8.40
2023-12-19T03:56:43.161Z,8.30
2023-12-19T03:58:44.903Z,8.30
2023-12-19T04:00:46.869Z,8.30
2023-12-19T04:02:48.841Z,8.30
2023-12-19T04:04:50.725Z,8.30
2023-12-19T04:06:52.686Z,8.30
2023-12-19T04:08:54.548Z,8.30
2023-12-19T04:10:56.284Z,8.30
2023-12-19T04:12:58.108Z,8.20
2023-12-19T04:14:59.838Z,8.20
2023-12-19T04:17:01.589Z,8.20
2023-12-19T04:19:03.338Z,8.20
2023-12-19T04:21:07.103Z,8.20
2023-12-19T04:23:08.887Z,8.20
2023-12-19T04:25:10.719Z,8.10
2023-12-19T04:27:12.499Z,8.10
2023-12-19T04:29:14.211Z,8.10
2023-12-19T04:31:16.195Z,8.10
2023-12-19T04:33:18.100Z,8.10
2023-12-19T04:35:19.831Z,8.10
2023-12-19T04:37:21.576Z,8.10
2023-12-19T04:39:23.271Z,8.10
2023-12-19T04:41:25.028Z,8.10
2023-12-19T04:43:26.741Z,8.10
2023-12-19T04:45:28.487Z,8.00
2023-12-19T04:47:30.438Z,8.00
2023-12-19T04:49:32.250Z,8.00
2023-12-19T04:51:34.104Z,8.00
2023-12-19T04:53:35.894Z,8.00
2023-12-19T04:55:37.644Z,8.00
2023-12-19T04:57:39.364Z,8.00
2023-12-19T04:59:41.123Z,8.00
2023-12-19T05:01:43.199Z,8.00
2023-12-19T05:03:45.148Z,8.00
2023-12-19T05:05:46.959Z,8.00
2023-12-19T05:07:48.723Z,8.10
2023-12-19T05:09:50.449Z,8.10
2023-12-19T05:11:52.165Z,8.10
2023-12-19T05:13:53.851Z,8.10
2023-12-19T05:15:55.612Z,8.10
2023-12-19T05:17:57.417Z,8.10
2023-12-19T05:20:00.188Z,8.10
2023-12-19T05:22:02.092Z,8.10
2023-12-19T05:24:03.990Z,8.10
2023-12-19T05:26:06.381Z,8.10
2023-12-19T05:28:08.084Z,8.10
2023-12-19T05:30:10.498Z,8.20
2023-12-19T05:32:12.316Z,8.10
2023-12-19T05:34:14.141Z,8.20
2023-12-19T05:36:16.096Z,8.10
2023-12-19T05:38:20.902Z,8.10
2023-12-19T05:40:22.737Z,8.10
2023-12-19T05:42:25.201Z,8.20
2023-12-19T05:44:26.914Z,8.10
2023-12-19T05:46:28.745Z,8.10
2023-12-19T05:48:30.651Z,8.10
2023-12-19T05:50:32.602Z,8.10
2023-12-19T05:52:34.610Z,8.10
2023-12-19T05:54:36.539Z,8.00
2023-12-19T05:56:38.378Z,8.00
2023-12-19T05:58:40.321Z,8.00
2023-12-19T06:00:42.219Z,8.00
2023-12-19T06:02:44.199Z,8.00
2023-12-19T06:04:46.131Z,8.00
2023-12-19T06:06:47.927Z,8.00
2023-12-19T06:08:49.810Z,8.00
2023-12-19T06:10:54.613Z,8.00
2023-12-19T06:12:57.389Z,7.90
2023-12-19T06:14:59.155Z,7.90
2023-12-19T06:17:00.881Z,7.90
2023-12-19T06:19:02.868Z,7.90
2023-12-19T06:21:04.780Z,7.90
2023-12-19T06:23:06.495Z,7.90
2023-12-19T06:25:08.356Z,7.90
2023-12-19T06:27:10.957Z,7.90
2023-12-19T06:29:12.706Z,7.90
2023-12-19T06:31:14.982Z,7.90
2023-12-19T06:33:16.942Z,7.90
2023-12-19T06:35:18.705Z,7.90
2023-12-19T06:37:20.456Z,8.00
2023-12-19T06:39:22.149Z,7.90
2023-12-19T06:41:24.110Z,7.90
2023-12-19T06:43:25.797Z,7.90
2023-12-19T06:45:27.525Z,7.90
2023-12-19T06:47:29.906Z,7.90
2023-12-19T06:49:31.686Z,7.90
2023-12-19T06:51:34.145Z,7.90
2023-12-19T06:53:36.124Z,7.90
2023-12-19T06:55:37.886Z,7.90
2023-12-19T06:57:39.750Z,7.90
2023-12-19T06:59:41.922Z,7.90
2023-12-19T07:01:44.214Z,7.80
2023-12-19T07:03:46.112Z,7.90
2023-12-19T07:05:47.959Z,7.90
2023-12-19T07:07:52.492Z,7.80
2023-12-19T07:09:54.495Z,7.80
2023-12-19T07:11:56.433Z,7.80
2023-12-19T07:13:58.252Z,7.80
2023-12-19T07:16:00.003Z,7.70
2023-12-19T07:18:01.979Z,7.70
2023-12-19T07:20:05.051Z,7.70
2023-12-19T07:22:07.935Z,7.70
2023-12-19T07:24:10.139Z,7.70
2023-12-19T07:26:21.275Z,7.70
2023-12-19T07:28:23.228Z,7.60
2023-12-19T07:30:25.180Z,7.60
2023-12-19T07:32:27.104Z,7.60
2023-12-19T07:34:29.048Z,7.60
2023-12-19T07:36:31.366Z,7.60
2023-12-19T07:38:34.328Z,7.60
2023-12-19T07:40:36.423Z,7.50
2023-12-19T07:42:38.137Z,7.50
2023-12-19T07:44:39.877Z,7.50
2023-12-19T07:46:42.454Z,7.50
2023-12-19T07:48:44.444Z,7.50
2023-12-19T07:50:46.204Z,7.50
2023-12-19T07:52:47.888Z,7.40
2023-12-19T07:54:49.620Z,7.40
2023-12-19T07:56:51.444Z,7.40
2023-12-19T07:58:53.720Z,7.40
2023-12-19T08:00:55.987Z,7.30
2023-12-19T08:02:58.745Z,7.30
2023-12-19T08:05:00.736Z,7.30
2023-12-19T08:07:03.760Z,7.30
2023-12-19T08:09:05.629Z,7.30
2023-12-19T08:11:08.028Z,7.30
2023-12-19T08:13:10.204Z,7.30
2023-12-19T08:15:12.767Z,7.30
2023-12-19T08:17:14.698Z,7.30
2023-12-19T08:19:17.848Z,7.30
2023-12-19T08:21:19.936Z,7.30
2023-12-19T08:23:21.655Z,7.30
2023-12-19T08:25:23.402Z,7.30
2023-12-19T08:27:29.222Z,7.30
2023-12-19T08:29:30.991Z,7.30
2023-12-19T08:31:32.818Z,7.30
2023-12-19T08:33:34.768Z,7.30
2023-12-19T08:35:36.842Z,7.40
2023-12-19T08:37:38.938Z,7.40
2023-12-19T08:39:40.738Z,7.40
2023-12-19T08:41:45.016Z,7.40
2023-12-19T08:43:46.795Z,7.40
2023-12-19T08:45:49.376Z,7.40
2023-12-19T08:47:51.786Z,7.40
2023-12-19T08:49:59.600Z,7.50
2023-12-19T08:52:01.387Z,7.50
2023-12-19T08:54:03.235Z,7.50
2023-12-19T08:56:05.171Z,7.50
2023-12-19T08:58:08.499Z,7.60
2023-12-19T09:00:14.225Z,7.50
2023-12-19T09:02:16.100Z,7.60
2023-12-19T09:04:18.552Z,7.60
2023-12-19T09:06:20.684Z,7.60
2023-12-19T09:08:22.437Z,7.60
2023-12-19T09:10:24.262Z,7.70
2023-12-19T09:12:26.042Z,7.70
2023-12-19T09:14:27.993Z,7.70
2023-12-19T09:16:30.012Z,7.70
2023-12-19T09:18:32.028Z,7.70
2023-12-19T09:20:33.958Z,7.70
2023-12-19T09:22:36.724Z,7.80
2023-12-19T09:24:38.540Z,7.80
2023-12-19T09:26:40.448Z,7.80
2023-12-19T09:28:42.293Z,7.80
2023-12-19T09:30:44.207Z,7.80
2023-12-19T09:32:46.447Z,7.80
2023-12-19T09:34:48.536Z,7.80
2023-12-19T09:36:56.451Z,7.90
2023-12-19T09:38:59.330Z,7.90
2023-12-19T09:41:01.188Z,7.90
2023-12-19T09:43:03.874Z,7.90
2023-12-19T09:45:08.017Z,7.90
2023-12-19T09:47:10.969Z,7.90
2023-12-19T09:49:13.566Z,8.00
2023-12-19T09:51:27.496Z,8.00
2023-12-19T09:53:37.698Z,8.00
2023-12-19T09:55:45.453Z,8.00
2023-12-19T09:57:47.376Z,8.10
2023-12-19T09:59:54.843Z,8.10
2023-12-19T10:01:59.194Z,8.10
2023-12-19T10:04:02.131Z,8.10
2023-12-19T10:06:04.485Z,8.10
2023-12-19T10:08:08.214Z,8.10
2023-12-19T10:10:12.545Z,8.10
2023-12-19T10:12:14.696Z,8.10
2023-12-19T10:14:16.549Z,8.10
2023-12-19T10:16:31.877Z,8.10
2023-12-19T10:18:45.316Z,8.10
2023-12-19T10:20:48.942Z,8.10
2023-12-19T10:22:53.611Z,8.10
2023-12-19T10:25:01.098Z,8.10
2023-12-19T10:27:04.032Z,8.10
2023-12-19T10:29:06.656Z,8.10
2023-12-19T10:31:16.629Z,8.10
2023-12-19T10:33:18.914Z,8.10
2023-12-19T10:35:20.819Z,8.20
2023-12-19T10:37:23.717Z,8.20
2023-12-19T10:39:26.697Z,8.20
2023-12-19T10:41:32.209Z,8.20
2023-12-19T10:43:39.306Z,8.20
2023-12-19T10:45:41.453Z,8.30
2023-12-19T10:47:43.638Z,8.30
2023-12-19T10:51:49.979Z,8.30
2023-12-19T10:53:59.983Z,8.30
2023-12-19T10:56:04.559Z,8.30
2023-12-19T10:58:06.632Z,8.40
2023-12-19T11:00:11.920Z,8.40
2023-12-19T11:02:30.260Z,8.40
2023-12-19T11:04:33.967Z,8.40
2023-12-19T11:06:36.922Z,8.40
2023-12-19T11:08:40.690Z,8.40
2023-12-19T11:10:43.287Z,8.40
2023-12-19T11:12:45.198Z,8.40
2023-12-19T11:14:47.017Z,8.40
2023-12-19T11:16:57.281Z,8.40
2023-12-19T11:19:09.856Z,8.40
2023-12-19T11:21:35.300Z,8.40
2023-12-19T11:23:40.232Z,8.50
2023-12-19T11:25:44.997Z,8.40
2023-12-19T11:27:56.570Z,8.40
2023-12-19T11:29:58.332Z,8.50
2023-12-19T11:32:00.139Z,8.40
2023-12-19T11:34:21.626Z,8.40
2023-12-19T11:36:23.510Z,8.40
2023-12-19T11:38:28.234Z,8.40
2023-12-19T11:40:57.867Z,8.40
2023-12-19T11:42:59.658Z,8.40
2023-12-19T11:45:01.460Z,8.40
2023-12-19T11:47:19.916Z,8.40
2023-12-19T11:49:36.951Z,8.40
2023-12-19T11:51:46.914Z,8.40
2023-12-19T11:53:49.120Z,8.40
2023-12-19T11:55:50.906Z,8.40
2023-12-19T11:57:57.356Z,8.30
2023-12-19T12:00:07.320Z,8.30
2023-12-19T12:02:32.961Z,8.30
2023-12-19T12:04:35.736Z,8.30
2023-12-19T12:06:42.380Z,8.30
2023-12-19T12:08:52.422Z,8.30
2023-12-19T12:11:01.066Z,8.40
2023-12-19T12:13:03.638Z,8.40
2023-12-19T12:15:25.003Z,8.40
2023-12-19T12:17:31.235Z,8.40
2023-12-19T12:19:33.437Z,8.40
2023-12-19T12:21:35.353Z,8.40
2023-12-19T12:23:37.201Z,8.40
2023-12-19T12:25:39.480Z,8.50
2023-12-19T12:27:41.774Z,8.40
2023-12-19T12:29:43.545Z,8.50
2023-12-19T12:31:46.217Z,8.40
2023-12-19T12:33:48.038Z,8.50
2023-12-19T12:35:49.965Z,8.50
2023-12-19T12:38:01.648Z,8.50
2023-12-19T12:40:05.967Z,8.40
2023-12-19T12:42:08.128Z,8.40
2023-12-19T12:44:13.271Z,8.40
2023-12-19T12:46:15.549Z,8.40
2023-12-19T12:48:17.424Z,8.40
2023-12-19T12:50:20.736Z,8.40
2023-12-19T12:52:22.587Z,8.40
2023-12-19T12:54:24.485Z,8.50
2023-12-19T12:56:38.457Z,8.40
2023-12-19T12:58:40.292Z,8.50
2023-12-19T13:00:47.203Z,8.50
2023-12-19T13:02:49.156Z,8.50
2023-12-19T13:04:51.647Z,8.50
2023-12-19T13:06:53.491Z,8.50
2023-12-19T13:08:55.232Z,8.50
2023-12-19T13:11:02.310Z,8.60
2023-12-19T13:13:05.120Z,8.50
2023-12-19T13:15:08.981Z,8.50
2023-12-19T13:17:10.751Z,8.50
2023-12-19T13:19:14.947Z,8.50
2023-12-19T13:21:17.348Z,8.60
2023-12-19T13:23:19.258Z,8.50
2023-12-19T13:25:21.089Z,8.50
2023-12-19T13:27:22.912Z,8.50
2023-12-19T13:29:24.864Z,8.50
2023-12-19T13:31:28.659Z,8.60
2023-12-19T13:33:31.161Z,8.60
2023-12-19T13:35:35.933Z,8.60
2023-12-19T13:37:37.727Z,8.60
2023-12-19T13:39:40.327Z,8.60
2023-12-19T13:41:42.666Z,8.60
2023-12-19T13:43:45.043Z,8.60
2023-12-19T13:45:47.572Z,8.60
2023-12-19T13:47:49.591Z,8.60
2023-12-19T13:49:53.184Z,8.60
2023-12-19T13:51:55.225Z,8.60
2023-12-19T13:53:57.063Z,8.60
2023-12-19T13:55:58.899Z,8.70
2023-12-19T13:58:00.965Z,8.70
2023-12-19T14:00:05.510Z,8.70
2023-12-19T14:02:19.148Z,8.70
2023-12-19T14:04:22.043Z,8.70
2023-12-19T14:06:24.068Z,8.70
2023-12-19T14:08:25.985Z,8.70
2023-12-19T14:10:27.986Z,8.70
2023-12-19T14:12:29.913Z,8.70
2023-12-19T14:14:31.844Z,8.60
2023-12-19T14:16:33.680Z,8.60
2023-12-19T14:18:35.561Z,8.60
2023-12-19T14:20:37.431Z,8.60
2023-12-19T14:22:39.977Z,8.60
2023-12-19T14:24:42.492Z,8.60
2023-12-19T14:26:45.532Z,8.50
2023-12-19T14:28:47.499Z,8.50
2023-12-19T14:30:49.483Z,8.50
2023-12-19T14:32:51.430Z,8.50
2023-12-19T14:34:53.337Z,8.50
2023-12-19T14:36:55.268Z,8.50
2023-12-19T14:39:00.492Z,8.60
2023-12-19T14:41:02.793Z,8.60
2023-12-19T14:43:05.677Z,8.60
2023-12-19T14:45:07.832Z,8.60
2023-12-19T14:47:09.589Z,8.60
2023-12-19T14:49:13.069Z,8.60
2023-12-19T14:51:15.620Z,8.60
2023-12-19T14:53:17.636Z,8.60
2023-12-19T14:55:19.440Z,8.60
2023-12-19T14:57:26.063Z,8.60
2023-12-19T14:59:27.991Z,8.70
2023-12-19T15:01:31.198Z,8.70
2023-12-19T15:03:33.150Z,8.70
2023-12-19T15:05:35.072Z,8.70
2023-12-19T15:07:37.043Z,8.70
2023-12-19T15:09:39.252Z,8.70
2023-12-19T15:11:41.562Z,8.70
2023-12-19T15:13:44.190Z,8.70
2023-12-19T15:15:46.036Z,8.70
2023-12-19T15:17:48.293Z,8.70
2023-12-19T15:19:50.451Z,8.70
2023-12-19T15:21:52.929Z,8.70
2023-12-19T15:23:54.807Z,8.60
2023-12-19T15:25:56.650Z,8.70
2023-12-19T15:28:02.776Z,8.60
2023-12-19T15:30:12.568Z,8.60
2023-12-19T15:32:14.880Z,8.60
2023-12-19T15:34:17.305Z,8.60
2023-12-19T15:36:19.380Z,8.60
2023-12-19T15:38:21.280Z,8.70
2023-12-19T15:40:23.275Z,8.60
2023-12-19T15:42:25.195Z,8.70
2023-12-19T15:44:27.095Z,8.70
2023-12-19T15:46:31.553Z,8.70
2023-12-19T15:48:33.488Z,8.70
2023-12-19T15:50:35.435Z,8.80
2023-12-19T15:52:39.287Z,8.70
2023-12-19T15:54:44.474Z,8.80
2023-12-19T15:56:46.443Z,8.80
2023-12-19T15:58:48.269Z,8.80
2023-12-19T16:00:51.065Z,8.80
2023-12-19T16:02:53.472Z,8.80
2023-12-19T16:04:55.968Z,8.80
2023-12-19T16:06:57.880Z,8.80
2023-12-19T16:08:59.897Z,8.80
2023-12-19T16:11:01.726Z,8.80
2023-12-19T16:13:03.661Z,8.80
2023-12-19T16:15:06.120Z,8.80
2023-12-19T16:17:08.697Z,8.80
2023-12-19T16:19:11.077Z,8.80
2023-12-19T16:21:14.117Z,8.80
2023-12-19T16:23:15.869Z,8.80
2023-12-19T16:25:17.659Z,8.80
2023-12-19T16:27:22.674Z,8.80
2023-12-19T16:29:27.430Z,8.80
2023-12-19T16:31:29.512Z,8.80
2023-12-19T16:33:31.726Z,8.80
2023-12-19T16:35:33.700Z,8.80
2023-12-19T16:37:35.550Z,8.70
2023-12-19T16:39:37.431Z,8.80
2023-12-19T16:41:39.325Z,8.80
2023-12-19T16:43:42.644Z,8.70
2023-12-19T16:45:44.554Z,8.80
2023-12-19T16:47:49.403Z,8.80
2023-12-19T16:49:55.016Z,8.80
2023-12-19T16:51:57.053Z,8.80
2023-12-19T16:53:58.915Z,8.80
2023-12-19T16:56:00.721Z,8.80
2023-12-19T16:58:02.569Z,8.80
2023-12-19T17:00:04.646Z,8.90
2023-12-19T17:02:06.593Z,8.90
2023-12-19T17:04:08.628Z,8.90
2023-12-19T17:06:10.679Z,8.90
2023-12-19T17:08:13.682Z,8.90
2023-12-19T17:10:15.555Z,8.90
2023-12-19T17:12:17.799Z,8.90
2023-12-19T17:14:19.814Z,8.90
2023-12-19T17:16:21.713Z,8.90
2023-12-19T17:18:23.773Z,8.90
2023-12-19T17:20:25.843Z,8.90
2023-12-19T17:22:27.981Z,8.90
2023-12-19T17:24:36.055Z,8.90
2023-12-19T17:26:42.841Z,8.90
2023-12-19T17:28:44.685Z,8.90
2023-12-19T17:30:46.781Z,8.90
2023-12-19T17:32:49.073Z,8.90
2023-12-19T17:34:50.876Z,8.90
2023-12-19T17:36:52.804Z,8.90
2023-12-19T17:38:54.633Z,8.90
2023-12-19T17:40:56.476Z,8.90
2023-12-19T17:42:58.352Z,9.00
2023-12-19T17:45:00.410Z,8.90
2023-12-19T17:47:10.123Z,8.90
2023-12-19T17:49:24.038Z,8.90
2023-12-19T17:51:25.966Z,8.90
2023-12-19T17:53:27.791Z,8.90
2023-12-19T17:55:29.677Z,8.90
2023-12-19T17:57:32.164Z,8.90
2023-12-19T17:59:34.067Z,8.90
2023-12-19T18:01:45.575Z,8.90
2023-12-19T18:03:48.010Z,8.90
2023-12-19T18:05:53.463Z,8.90
2023-12-19T18:07:55.516Z,8.90
2023-12-19T18:09:57.631Z,8.90
2023-12-19T18:11:59.647Z,8.90
2023-12-19T18:14:01.570Z,8.90
2023-12-19T18:16:06.359Z,8.90
2023-12-19T18:18:08.616Z,8.90
2023-12-19T18:20:10.898Z,9.00
2023-12-19T18:22:12.769Z,8.90
2023-12-19T18:24:14.742Z,8.90
2023-12-19T18:26:16.656Z,8.90
2023-12-19T18:28:18.642Z,8.90
2023-12-19T18:30:20.685Z,8.90
2023-12-19T18:32:22.552Z,8.90
2023-12-19T18:34:24.639Z,8.90
2023-12-19T18:36:26.663Z,8.80
2023-12-19T18:38:31.267Z,8.90
2023-12-19T18:40:33.488Z,8.90
2023-12-19T18:42:35.906Z,8.80
2023-12-19T18:44:38.387Z,8.80
2023-12-19T18:46:41.275Z,8.80
2023-12-19T18:48:43.293Z,8.80
2023-12-19T18:50:49.487Z,8.80
2023-12-19T18:52:54.421Z,8.80
2023-12-19T18:54:57.020Z,8.80
2023-12-19T18:56:58.948Z,8.80
2023-12-19T18:59:03.158Z,8.80
2023-12-19T19:01:20.257Z,8.80
2023-12-19T19:03:23.304Z,8.80
2023-12-19T19:05:28.041Z,8.80
2023-12-19T19:07:39.603Z,8.80
2023-12-19T19:09:42.697Z,8.90
2023-12-19T19:11:46.193Z,8.90
2023-12-19T19:13:54.211Z,8.90
2023-12-19T19:15:59.381Z,8.90
2023-12-19T19:18:02.937Z,8.90
2023-12-19T19:20:06.371Z,8.90
2023-12-19T19:22:08.906Z,8.90
2023-12-19T19:24:19.884Z,8.90
2023-12-19T19:26:27.939Z,9.00
2023-12-19T19:28:31.505Z,9.00
2023-12-19T19:30:33.531Z,9.00
2023-12-19T19:32:35.940Z,9.00
2023-12-19T19:34:40.661Z,9.10
2023-12-19T19:36:42.743Z,9.10
2023-12-19T19:38:44.693Z,9.10
2023-12-19T19:40:47.951Z,9.20
2023-12-19T19:42:49.760Z,9.20
2023-12-19T19:44:51.655Z,9.20
2023-12-19T19:46:53.499Z,9.20
2023-12-19T19:48:55.645Z,9.30
2023-12-19T19:50:58.335Z,9.30
2023-12-19T19:53:00.466Z,9.30
2023-12-19T19:55:03.056Z,9.30
2023-12-19T19:57:05.045Z,9.30
2023-12-19T19:59:06.930Z,9.30
2023-12-19T20:01:09.773Z,9.30
2023-12-19T20:03:11.917Z,9.40
2023-12-19T20:05:13.929Z,9.40
2023-12-19T20:07:16.032Z,9.40
2023-12-19T20:09:18.645Z,9.40
2023-12-19T20:11:20.742Z,9.40
2023-12-19T20:13:22.820Z,9.40
2023-12-19T20:15:25.032Z,9.40
2023-12-19T20:17:27.546Z,9.40
2023-12-19T20:19:29.456Z,9.40
2023-12-19T20:21:31.353Z,9.40
2023-12-19T20:23:33.229Z,9.40
2023-12-19T20:25:35.059Z,9.40
2023-12-19T20:27:37.112Z,9.40
2023-12-19T20:29:39.771Z,9.40
2023-12-19T20:31:41.760Z,9.40
2023-12-19T20:33:46.908Z,9.40
2023-12-19T20:35:50.024Z,9.40
2023-12-19T20:37:52.859Z,9.40
2023-12-19T20:39:58.276Z,9.40
2023-12-19T20:42:03.289Z,9.40
2023-12-19T20:44:11.547Z,9.40
2023-12-19T20:46:19.938Z,9.40
2023-12-19T20:48:25.734Z,9.40
2023-12-19T20:50:31.215Z,9.40
2023-12-19T20:52:50.203Z,9.40
2023-12-19T20:55:04.283Z,9.40
2023-12-19T20:57:13.280Z,9.40
2023-12-19T20:59:18.345Z,9.40
2023-12-19T21:01:21.872Z,9.40
2023-12-19T21:03:25.408Z,9.40
2023-12-19T21:05:29.876Z,9.40
2023-12-19T21:07:33.071Z,9.40
2023-12-19T21:09:36.504Z,9.50
2023-12-19T21:11:42.464Z,9.40
2023-12-19T21:13:46.853Z,9.40
2023-12-19T21:15:51.116Z,9.40
2023-12-19T21:17:53.427Z,9.50
2023-12-19T21:19:56.205Z,9.40
2023-12-19T21:21:59.970Z,9.50
2023-12-19T21:24:03.631Z,9.40
2023-12-19T21:26:06.982Z,9.40
2023-12-19T21:28:09.395Z,9.40
2023-12-19T21:30:11.826Z,9.40
2023-12-19T21:32:14.422Z,9.40
2023-12-19T21:34:17.809Z,9.40
2023-12-19T21:36:21.384Z,9.40
2023-12-19T21:38:24.643Z,9.40
2023-12-19T21:40:26.871Z,9.40
2023-12-19T21:42:31.363Z,9.40
2023-12-19T21:44:36.166Z,9.40
2023-12-19T21:46:38.467Z,9.40
2023-12-19T21:48:41.155Z,9.40
2023-12-19T21:50:43.823Z,9.40
2023-12-19T21:52:46.011Z,9.40
2023-12-19T21:54:48.122Z,9.40
2023-12-19T21:56:50.956Z,9.40
2023-12-19T21:58:53.266Z,9.40
2023-12-19T22:00:55.899Z,9.40
2023-12-19T22:02:58.433Z,9.40
2023-12-19T22:05:00.771Z,9.40
2023-12-19T22:07:03.288Z,9.40
2023-12-19T22:09:05.538Z,9.40
2023-12-19T22:11:08.682Z,9.40
2023-12-19T22:13:10.924Z,9.40
2023-12-19T22:15:16.356Z,9.40
2023-12-19T22:17:19.104Z,9.40
2023-12-19T22:19:21.120Z,9.40
2023-12-19T22:21:25.257Z,9.40
2023-12-19T22:23:30.437Z,9.40
2023-12-19T22:25:33.183Z,9.40
2023-12-19T22:27:35.806Z,9.40
2023-12-19T22:29:38.703Z,9.40
2023-12-19T22:31:41.764Z,9.40
2023-12-19T22:33:46.305Z,9.50
2023-12-19T22:35:48.528Z,9.40
2023-12-19T22:37:50.443Z,9.50
2023-12-19T22:39:52.688Z,9.50
2023-12-19T22:41:55.186Z,9.50
2023-12-19T22:43:57.173Z,9.50
2023-12-19T22:46:00.462Z,9.50
2023-12-19T22:48:02.618Z,9.50
2023-12-19T22:50:04.863Z,9.50
2023-12-19T22:52:06.970Z,9.50
2023-12-19T22:54:09.853Z,9.50
2023-12-19T22:56:19.769Z,9.50
2023-12-19T22:58:22.544Z,9.50
2023-12-19T23:00:24.409Z,9.50
2023-12-19T23:02:26.452Z,9.50
2023-12-19T23:04:28.387Z,9.50
2023-12-19T23:06:32.724Z,9.50
2023-12-19T23:08:34.546Z,9.60
2023-12-19T23:10:38.096Z,9.50
2023-12-19T23:12:41.644Z,9.50
2023-12-19T23:14:43.750Z,9.50
2023-12-19T23:16:45.866Z,9.50
2023-12-19T23:18:47.762Z,9.60
2023-12-19T23:20:49.774Z,9.50
2023-12-19T23:22:51.719Z,9.50
2023-12-19T23:24:56.494Z,9.60
2023-12-19T23:26:58.266Z,9.50
2023-12-19T23:28:59.989Z,9.50
2023-12-19T23:31:02.007Z,9.50
2023-12-19T23:33:03.923Z,9.50
2023-12-19T23:35:06.049Z,9.50
2023-12-19T23:37:07.995Z,9.50
2023-12-19T23:39:10.111Z,9.50
2023-12-19T23:41:15.353Z,9.50
2023-12-19T23:43:19.460Z,9.50
2023-12-19T23:45:21.612Z,9.60
2023-12-19T23:47:23.367Z,9.60
2023-12-19T23:49:25.170Z,9.60
2023-12-19T23:51:27.004Z,9.60
2023-12-19T23:53:28.670Z,9.60
2023-12-19T23:55:30.445Z,9.60
2023-12-19T23:57:32.166Z,9.60
2023-12-19T23:59:33.949Z,9.60
